createdAt,value
2023-04-27T00:00:37.169Z,3.57
2023-04-27T00:03:07.005Z,3.48
2023-04-27T00:05:35.590Z,3.56
2023-04-27T00:08:04.569Z,3.59
2023-04-27T00:10:32.092Z,3.52
2023-04-27T00:12:59.784Z,3.48
2023-04-27T00:15:27.642Z,3.28
2023-04-27T00:17:55.223Z,3.24
2023-04-27T00:20:22.801Z,3.48
2023-04-27T00:22:50.404Z,3.34
2023-04-27T00:25:19.350Z,3.20
2023-04-27T00:27:46.922Z,3.40
2023-04-27T00:30:14.581Z,3.49
2023-04-27T00:32:42.651Z,3.41
2023-04-27T00:35:10.795Z,3.20
2023-04-27T00:37:38.349Z,3.05
2023-04-27T00:40:07.899Z,2.91
2023-04-27T00:42:36.806Z,3.07
2023-04-27T00:45:06.094Z,2.88
2023-04-27T00:47:33.991Z,3.05
2023-04-27T00:50:03.929Z,3.03
2023-04-27T00:52:31.595Z,3.00
2023-04-27T00:54:59.128Z,2.83
2023-04-27T00:57:26.722Z,2.83
2023-04-27T00:59:55.623Z,2.68
2023-04-27T01:02:23.377Z,2.44
2023-04-27T01:04:52.089Z,2.49
2023-04-27T01:07:20.192Z,2.31
2023-04-27T01:09:47.701Z,2.76
2023-04-27T01:12:16.618Z,2.50
2023-04-27T01:14:44.244Z,2.42
2023-04-27T01:17:14.209Z,2.41
2023-04-27T01:19:41.842Z,1.84
2023-04-27T01:22:10.841Z,2.25
2023-04-27T01:24:40.422Z,2.22
2023-04-27T01:27:08.008Z,2.05
2023-04-27T01:29:37.684Z,1.90
2023-04-27T01:32:05.811Z,2.08
2023-04-27T01:34:33.395Z,1.89
2023-04-27T01:37:01.041Z,1.74
2023-04-27T01:39:28.577Z,2.06
2023-04-27T01:41:58.615Z,2.16
2023-04-27T01:44:26.366Z,1.97
2023-04-27T01:46:55.146Z,2.42
2023-04-27T01:49:22.649Z,2.13
2023-04-27T01:51:50.178Z,2.03
2023-04-27T01:54:17.705Z,2.42
2023-04-27T01:56:45.293Z,2.09
2023-04-27T01:59:14.523Z,1.66
2023-04-27T02:01:42.378Z,1.74
2023-04-27T02:04:10.225Z,2.03
2023-04-27T02:06:37.943Z,1.88
2023-04-27T02:09:07.224Z,1.82
2023-04-27T02:11:34.822Z,2.27
2023-04-27T02:14:02.533Z,2.14
2023-04-27T02:16:34.461Z,1.91
2023-04-27T02:19:02.898Z,2.17
2023-04-27T02:21:30.468Z,1.86
2023-04-27T02:23:58.014Z,2.02
2023-04-27T02:26:29.419Z,1.95
2023-04-27T02:28:58.067Z,1.84
2023-04-27T02:31:26.323Z,1.91
2023-04-27T02:33:55.833Z,2.04
2023-04-27T02:36:26.026Z,2.28
2023-04-27T02:38:55.660Z,1.71
2023-04-27T02:41:23.265Z,1.69
2023-04-27T02:43:51.372Z,2.10
2023-04-27T02:46:19.090Z,2.02
2023-04-27T02:48:46.640Z,1.75
2023-04-27T02:51:15.582Z,1.86
2023-04-27T02:53:43.177Z,1.29
2023-04-27T02:56:10.730Z,1.52
2023-04-27T02:58:38.275Z,1.56
2023-04-27T03:01:05.931Z,1.69
2023-04-27T03:03:33.589Z,1.45
2023-04-27T03:06:01.260Z,1.44
2023-04-27T03:08:30.133Z,1.71
2023-04-27T03:10:58.876Z,1.93
2023-04-27T03:13:26.404Z,1.75
2023-04-27T03:15:54.316Z,1.62
2023-04-27T03:18:21.888Z,1.47
2023-04-27T03:20:49.463Z,1.31
2023-04-27T03:23:16.954Z,1.45
2023-04-27T03:25:48.922Z,1.33
2023-04-27T03:28:16.597Z,1.46
2023-04-27T03:30:44.154Z,1.50
2023-04-27T03:33:11.733Z,1.83
2023-04-27T03:35:39.329Z,1.87
2023-04-27T03:38:06.925Z,1.88
2023-04-27T03:40:34.526Z,1.88
2023-04-27T03:43:03.431Z,1.92
2023-04-27T03:45:31.233Z,1.80
2023-04-27T03:47:58.918Z,1.94
2023-04-27T03:50:28.373Z,1.93
2023-04-27T03:52:57.267Z,2.06
2023-04-27T03:55:25.887Z,2.17
2023-04-27T03:57:53.915Z,2.12
2023-04-27T04:00:23.661Z,2.34
2023-04-27T04:02:52.340Z,2.47
2023-04-27T04:05:20.222Z,2.47
2023-04-27T04:07:49.454Z,2.49
2023-04-27T04:10:17.228Z,2.59
2023-04-27T04:12:45.791Z,2.11
2023-04-27T04:15:13.506Z,2.22
2023-04-27T04:17:42.520Z,2.26
2023-04-27T04:20:10.875Z,2.30
2023-04-27T04:22:38.620Z,2.46
2023-04-27T04:25:07.400Z,2.37
2023-04-27T04:27:34.981Z,2.31
2023-04-27T04:30:06.413Z,2.42
2023-04-27T04:32:37.937Z,2.31
2023-04-27T04:35:29.140Z,2.36
2023-04-27T04:38:00.830Z,2.65
2023-04-27T04:40:29.869Z,2.40
2023-04-27T04:42:57.461Z,2.37
2023-04-27T04:45:25.247Z,2.55
2023-04-27T04:47:54.484Z,2.66
2023-04-27T04:50:23.921Z,2.85
2023-04-27T04:52:52.161Z,2.64
2023-04-27T04:55:19.842Z,2.50
2023-04-27T04:57:47.441Z,2.59
2023-04-27T05:00:15.491Z,2.76
2023-04-27T05:02:43.270Z,2.87
2023-04-27T05:05:10.923Z,3.06
2023-04-27T05:07:39.811Z,3.04
2023-04-27T05:10:07.691Z,3.01
2023-04-27T05:12:35.336Z,3.29
2023-04-27T05:15:02.876Z,3.33
2023-04-27T05:17:30.601Z,3.15
2023-04-27T05:19:58.337Z,3.24
2023-04-27T05:22:25.967Z,3.26
2023-04-27T05:24:55.522Z,3.17
2023-04-27T05:27:23.071Z,3.55
2023-04-27T05:29:50.750Z,3.72
2023-04-27T05:32:18.256Z,3.67
2023-04-27T05:34:47.971Z,3.99
2023-04-27T05:37:17.076Z,3.48
2023-04-27T05:39:44.692Z,3.39
2023-04-27T05:42:13.971Z,3.77
2023-04-27T05:44:41.707Z,3.79
2023-04-27T05:47:09.224Z,3.55
2023-04-27T05:49:37.189Z,3.83
2023-04-27T05:52:04.993Z,3.46
2023-04-27T05:54:32.558Z,3.67
2023-04-27T05:57:00.053Z,3.77
2023-04-27T05:59:29.433Z,3.58
2023-04-27T06:01:57.078Z,3.60
2023-04-27T06:04:24.902Z,3.52
2023-04-27T06:06:52.466Z,3.53
2023-04-27T06:09:20.003Z,3.71
2023-04-27T06:11:47.483Z,3.67
2023-04-27T06:14:15.130Z,3.84
2023-04-27T06:16:43.971Z,4.21
2023-04-27T06:19:12.302Z,4.42
2023-04-27T06:21:40.071Z,4.57
2023-04-27T06:24:07.831Z,4.71
2023-04-27T06:26:35.391Z,4.83
2023-04-27T06:29:03.789Z,4.68
2023-04-27T06:31:31.374Z,4.90
2023-04-27T06:34:00.482Z,4.79
2023-04-27T06:36:28.233Z,5.03
2023-04-27T06:38:56.604Z,5.23
2023-04-27T06:41:24.153Z,5.27
2023-04-27T06:43:51.652Z,5.72
2023-04-27T06:46:19.169Z,5.63
2023-04-27T06:48:46.862Z,5.40
2023-04-27T06:51:16.106Z,5.51
2023-04-27T06:53:43.614Z,5.55
2023-04-27T06:56:12.613Z,5.79
2023-04-27T06:58:40.153Z,5.69
2023-04-27T07:01:07.733Z,6.00
2023-04-27T07:03:35.930Z,6.32
2023-04-27T07:06:03.676Z,6.44
2023-04-27T07:08:32.582Z,6.49
2023-04-27T07:11:00.109Z,6.41
2023-04-27T07:13:27.742Z,6.98
2023-04-27T07:15:56.685Z,6.95
2023-04-27T07:18:26.045Z,6.88
2023-04-27T07:20:53.599Z,6.43
2023-04-27T07:23:21.161Z,6.50
2023-04-27T07:25:50.026Z,6.73
2023-04-27T07:28:17.587Z,7.02
2023-04-27T07:30:45.686Z,7.31
2023-04-27T07:33:13.352Z,7.06
2023-04-27T07:35:45.895Z,6.88
2023-04-27T07:38:13.470Z,7.00
2023-04-27T07:40:42.639Z,7.35
2023-04-27T07:43:12.700Z,7.35
2023-04-27T07:45:41.621Z,7.82
2023-04-27T07:48:09.832Z,7.43
2023-04-27T07:50:37.450Z,7.43
2023-04-27T07:53:04.974Z,7.29
2023-04-27T07:55:32.874Z,7.09
2023-04-27T07:58:00.592Z,7.32
2023-04-27T08:00:29.431Z,7.26
2023-04-27T08:02:57.186Z,7.91
2023-04-27T08:05:25.214Z,8.22
2023-04-27T08:07:54.486Z,7.57
2023-04-27T08:10:22.459Z,7.63
2023-04-27T08:12:50.003Z,7.92
2023-04-27T08:15:17.593Z,7.74
2023-04-27T08:17:47.306Z,8.49
2023-04-27T08:20:14.921Z,8.10
2023-04-27T08:22:42.756Z,8.41
2023-04-27T08:25:10.508Z,8.41
2023-04-27T08:27:38.150Z,9.11
2023-04-27T08:30:06.096Z,8.72
2023-04-27T08:32:33.686Z,7.96
2023-04-27T08:35:02.606Z,8.25
2023-04-27T08:37:30.193Z,9.61
2023-04-27T08:39:57.693Z,8.77
2023-04-27T08:42:25.276Z,8.43
2023-04-27T08:44:52.777Z,9.20
2023-04-27T08:47:28.382Z,8.84
2023-04-27T08:50:03.844Z,9.57
2023-04-27T08:52:31.812Z,9.14
2023-04-27T08:54:59.372Z,8.81
2023-04-27T08:57:26.922Z,9.03
2023-04-27T09:00:00.973Z,9.29
2023-04-27T09:02:29.715Z,9.12
2023-04-27T09:04:57.649Z,9.14
2023-04-27T09:07:28.637Z,9.46
2023-04-27T09:10:02.818Z,10.05
2023-04-27T09:12:30.443Z,10.04
2023-04-27T09:14:57.954Z,9.87
2023-04-27T09:17:25.895Z,9.32
2023-04-27T09:19:53.500Z,9.73
2023-04-27T09:22:21.176Z,9.93
2023-04-27T09:24:53.401Z,9.84
2023-04-27T09:27:21.164Z,9.18
2023-04-27T09:29:48.691Z,9.62
2023-04-27T09:32:17.579Z,10.79
2023-04-27T09:34:45.388Z,9.25
2023-04-27T09:37:14.312Z,10.73
2023-04-27T09:39:41.812Z,11.56
2023-04-27T09:42:10.822Z,11.22
2023-04-27T09:44:38.289Z,11.31
2023-04-27T09:47:06.016Z,10.11
2023-04-27T09:49:33.516Z,9.69
2023-04-27T09:52:01.005Z,9.91
2023-04-27T09:54:29.107Z,9.79
2023-04-27T09:57:02.933Z,9.80
2023-04-27T09:59:46.329Z,10.52
2023-04-27T10:02:24.914Z,10.79
2023-04-27T10:05:03.763Z,10.93
2023-04-27T10:07:31.450Z,10.21
2023-04-27T10:10:01.944Z,10.10
2023-04-27T10:12:30.011Z,10.00
2023-04-27T10:14:59.280Z,10.20
2023-04-27T10:17:27.541Z,10.97
2023-04-27T10:19:58.712Z,10.13
2023-04-27T10:22:27.098Z,10.06
2023-04-27T10:24:57.440Z,10.09
2023-04-27T10:27:30.279Z,9.88
2023-04-27T10:30:09.074Z,9.79
2023-04-27T10:32:36.656Z,10.47
2023-04-27T10:35:06.440Z,11.09
2023-04-27T10:37:39.449Z,10.27
2023-04-27T10:40:10.804Z,10.95
2023-04-27T10:42:38.351Z,11.55
2023-04-27T10:45:09.865Z,11.90
2023-04-27T10:47:40.105Z,12.16
2023-04-27T10:50:11.370Z,11.76
2023-04-27T10:52:41.257Z,11.44
2023-04-27T10:55:18.185Z,12.07
2023-04-27T10:57:51.056Z,12.15
2023-04-27T11:00:25.391Z,11.52
2023-04-27T11:02:54.013Z,11.15
2023-04-27T11:05:23.409Z,11.31
2023-04-27T11:07:51.056Z,11.34
2023-04-27T11:10:18.937Z,11.54
2023-04-27T11:12:46.817Z,11.04
2023-04-27T11:15:16.713Z,10.25
2023-04-27T11:17:45.757Z,10.90
2023-04-27T11:20:14.512Z,10.80
2023-04-27T11:22:45.912Z,11.33
2023-04-27T11:25:13.512Z,10.67
2023-04-27T11:27:41.941Z,11.46
2023-04-27T11:30:19.705Z,11.53
2023-04-27T11:32:48.971Z,11.54
2023-04-27T11:35:16.855Z,11.30
2023-04-27T11:37:44.400Z,11.68
2023-04-27T11:40:14.336Z,11.70
2023-04-27T11:42:43.525Z,10.81
2023-04-27T11:45:12.178Z,11.29
2023-04-27T11:47:41.153Z,11.56
2023-04-27T11:50:10.570Z,11.41
2023-04-27T11:52:39.077Z,11.66
2023-04-27T11:55:07.161Z,11.18
2023-04-27T11:57:35.872Z,11.10
2023-04-27T12:00:04.986Z,11.04
2023-04-27T12:02:40.833Z,11.06
2023-04-27T12:05:12.462Z,11.57
2023-04-27T12:07:41.123Z,11.68
2023-04-27T12:10:09.320Z,11.69
2023-04-27T12:12:36.986Z,11.13
2023-04-27T12:15:04.739Z,10.91
2023-04-27T12:17:32.813Z,11.49
2023-04-27T12:20:00.505Z,11.40
2023-04-27T12:22:29.833Z,11.39
2023-04-27T12:24:57.594Z,11.77
2023-04-27T12:27:26.524Z,11.70
2023-04-27T12:29:55.168Z,11.11
2023-04-27T12:32:23.645Z,11.73
2023-04-27T12:34:51.369Z,11.36
2023-04-27T12:37:18.885Z,11.29
2023-04-27T12:39:47.804Z,11.38
2023-04-27T12:42:15.400Z,11.44
2023-04-27T12:44:42.924Z,11.30
2023-04-27T12:47:12.287Z,11.73
2023-04-27T12:49:45.098Z,12.48
2023-04-27T12:52:12.637Z,11.68
2023-04-27T12:54:40.212Z,11.44
2023-04-27T12:57:09.133Z,11.71
2023-04-27T12:59:37.118Z,11.78
2023-04-27T13:02:05.168Z,12.05
2023-04-27T13:04:33.071Z,12.44
2023-04-27T13:07:01.038Z,12.69
2023-04-27T13:09:28.817Z,12.55
2023-04-27T13:12:01.397Z,11.67
2023-04-27T13:14:32.156Z,12.27
2023-04-27T13:16:59.690Z,11.44
2023-04-27T13:19:27.290Z,11.78
2023-04-27T13:21:55.223Z,11.81
2023-04-27T13:24:24.590Z,12.52
2023-04-27T13:26:52.126Z,12.35
2023-04-27T13:29:19.892Z,12.59
2023-04-27T13:31:51.424Z,12.78
2023-04-27T13:34:19.626Z,11.87
2023-04-27T13:36:49.395Z,12.48
2023-04-27T13:39:20.116Z,12.57
2023-04-27T13:41:47.602Z,12.88
2023-04-27T13:44:18.148Z,12.89
2023-04-27T13:47:34.451Z,12.49
2023-04-27T13:50:03.708Z,12.20
2023-04-27T13:52:31.412Z,12.33
2023-04-27T13:54:59.317Z,12.32
2023-04-27T13:57:27.140Z,11.89
2023-04-27T13:59:54.677Z,11.73
2023-04-27T14:02:22.301Z,11.72
2023-04-27T14:04:49.843Z,11.96
2023-04-27T14:07:18.630Z,11.90
2023-04-27T14:09:46.152Z,11.50
2023-04-27T14:12:16.289Z,11.70
2023-04-27T14:14:46.888Z,11.82
2023-04-27T14:17:14.489Z,11.52
2023-04-27T14:19:42.808Z,11.35
2023-04-27T14:22:10.475Z,11.16
2023-04-27T14:24:39.482Z,11.28
2023-04-27T14:27:07.025Z,11.32
2023-04-27T14:29:34.679Z,11.37
2023-04-27T14:32:02.262Z,11.87
2023-04-27T14:34:29.967Z,11.72
2023-04-27T14:36:57.465Z,11.63
2023-04-27T14:39:25.219Z,11.88
2023-04-27T14:41:54.142Z,11.80
2023-04-27T14:44:21.702Z,12.05
2023-04-27T14:46:51.322Z,11.85
2023-04-27T14:49:19.008Z,12.18
2023-04-27T14:51:46.670Z,12.14
2023-04-27T14:58:09.734Z,11.94
2023-04-27T15:00:37.258Z,11.83
2023-04-27T15:03:04.864Z,11.44
2023-04-27T15:05:32.734Z,11.99
2023-04-27T15:08:01.503Z,11.88
2023-04-27T15:10:28.922Z,11.99
2023-04-27T15:12:56.429Z,11.90
2023-04-27T15:15:25.207Z,11.99
2023-04-27T15:17:52.770Z,12.39
2023-04-27T15:20:20.551Z,12.35
2023-04-27T15:22:48.149Z,12.40
2023-04-27T15:25:18.466Z,12.12
2023-04-27T15:27:46.068Z,11.92
2023-04-27T15:30:14.596Z,11.70
2023-04-27T15:32:43.538Z,12.13
2023-04-27T15:35:11.436Z,12.04
2023-04-27T15:37:38.915Z,11.86
2023-04-27T15:40:09.744Z,12.33
2023-04-27T15:42:37.202Z,12.21
2023-04-27T15:45:04.975Z,12.25
2023-04-27T15:47:32.496Z,12.50
2023-04-27T15:50:01.442Z,12.65
2023-04-27T15:52:29.665Z,12.19
2023-04-27T15:54:57.203Z,12.04
2023-04-27T15:57:24.653Z,12.38
2023-04-27T15:59:52.528Z,12.26
2023-04-27T16:02:20.119Z,12.61
2023-04-27T16:04:48.663Z,12.73
2023-04-27T16:07:17.458Z,11.95
2023-04-27T16:09:45.053Z,11.66
2023-04-27T16:12:12.548Z,11.63
2023-04-27T16:14:40.382Z,11.86
2023-04-27T16:17:07.837Z,12.16
2023-04-27T16:19:36.577Z,12.08
2023-04-27T16:22:04.288Z,11.85
2023-04-27T16:24:33.113Z,11.51
2023-04-27T16:27:00.531Z,12.16
2023-04-27T16:29:28.029Z,12.12
2023-04-27T16:31:55.574Z,12.07
2023-04-27T16:34:23.136Z,11.84
2023-04-27T16:36:55.645Z,11.81
2023-04-27T16:39:23.100Z,11.53
2023-04-27T16:41:52.595Z,11.64
2023-04-27T16:44:20.714Z,11.33
2023-04-27T16:46:48.730Z,11.07
2023-04-27T16:49:16.741Z,10.79
2023-04-27T16:51:47.417Z,10.78
2023-04-27T16:54:16.480Z,10.62
2023-04-27T16:56:44.067Z,10.55
2023-04-27T16:59:13.332Z,10.24
2023-04-27T17:01:41.769Z,10.22
2023-04-27T17:04:09.509Z,10.15
2023-04-27T17:06:37.206Z,9.94
2023-04-27T17:09:05.302Z,9.96
2023-04-27T17:11:32.867Z,9.89
2023-04-27T17:14:01.172Z,9.93
2023-04-27T17:16:30.161Z,9.85
2023-04-27T17:18:57.857Z,9.84
2023-04-27T17:21:26.888Z,9.83
2023-04-27T17:23:56.409Z,9.83
2023-04-27T17:26:23.920Z,10.02
2023-04-27T17:28:51.703Z,10.00
2023-04-27T17:31:19.465Z,9.94
2023-04-27T17:33:48.369Z,9.93
2023-04-27T17:36:17.821Z,9.83
2023-04-27T17:38:46.368Z,9.86
2023-04-27T17:41:13.876Z,9.76
2023-04-27T17:43:41.918Z,9.65
2023-04-27T17:46:10.074Z,9.63
2023-04-27T17:48:38.248Z,9.48
2023-04-27T17:51:08.619Z,9.42
2023-04-27T17:53:36.223Z,9.16
2023-04-27T17:56:03.804Z,8.97
2023-04-27T17:58:32.488Z,8.86
2023-04-27T18:01:00.070Z,9.09
2023-04-27T18:03:30.373Z,9.11
2023-04-27T18:05:58.294Z,8.96
2023-04-27T18:08:27.253Z,8.67
2023-04-27T18:10:54.784Z,8.73
2023-04-27T18:13:22.307Z,8.67
2023-04-27T18:15:49.864Z,8.55
2023-04-27T18:18:22.597Z,8.53
2023-04-27T18:20:52.223Z,8.38
2023-04-27T18:23:19.789Z,8.39
2023-04-27T18:25:48.671Z,8.23
2023-04-27T18:28:19.071Z,8.26
2023-04-27T18:30:46.605Z,8.02
2023-04-27T18:33:14.351Z,8.07
2023-04-27T18:35:41.973Z,8.03
2023-04-27T18:38:09.773Z,7.95
2023-04-27T18:40:38.708Z,7.64
2023-04-27T18:43:07.814Z,7.78
2023-04-27T18:45:37.762Z,7.74
2023-04-27T18:48:07.880Z,7.65
2023-04-27T18:50:41.548Z,7.68
2023-04-27T18:53:09.074Z,7.66
2023-04-27T18:55:36.679Z,7.50
2023-04-27T18:58:04.239Z,7.56
2023-04-27T19:00:36.383Z,7.52
2023-04-27T19:03:04.255Z,7.81
2023-04-27T19:05:32.197Z,7.42
2023-04-27T19:07:59.847Z,7.41
2023-04-27T19:10:27.323Z,7.44
2023-04-27T19:12:58.353Z,7.43
2023-04-27T19:15:26.077Z,7.42
2023-04-27T19:18:02.642Z,7.39
2023-04-27T19:20:37.403Z,7.44
2023-04-27T19:23:05.304Z,7.36
2023-04-27T19:25:32.936Z,7.46
2023-04-27T19:28:00.732Z,7.46
2023-04-27T19:30:28.445Z,7.39
2023-04-27T19:32:59.659Z,7.62
2023-04-27T19:35:27.651Z,7.58
2023-04-27T19:37:56.501Z,7.89
2023-04-27T19:40:24.802Z,8.17
2023-04-27T19:42:52.492Z,8.30
2023-04-27T19:45:20.694Z,8.15
2023-04-27T19:47:48.759Z,8.07
2023-04-27T19:50:17.728Z,8.17
2023-04-27T19:52:45.723Z,8.15
2023-04-27T19:55:13.664Z,7.94
2023-04-27T19:57:41.392Z,7.32
2023-04-27T20:00:12.636Z,7.40
2023-04-27T20:02:43.075Z,7.71
2023-04-27T20:05:14.179Z,8.01
2023-04-27T20:07:43.397Z,7.77
2023-04-27T20:10:11.109Z,6.80
2023-04-27T20:12:55.252Z,6.58
2023-04-27T20:15:26.058Z,6.61
2023-04-27T20:17:53.779Z,6.87
2023-04-27T20:20:21.396Z,6.79
2023-04-27T20:22:52.908Z,6.44
2023-04-27T20:25:20.711Z,6.39
2023-04-27T20:27:48.350Z,6.36
2023-04-27T20:30:16.054Z,6.41
2023-04-27T20:32:43.692Z,6.05
2023-04-27T20:35:11.658Z,5.65
2023-04-27T20:37:45.792Z,5.23
2023-04-27T20:40:17.612Z,5.16
2023-04-27T20:42:45.781Z,4.99
2023-04-27T20:45:13.742Z,5.15
2023-04-27T20:47:41.788Z,5.92
2023-04-27T20:50:09.625Z,5.23
2023-04-27T20:52:37.260Z,4.98
2023-04-27T20:55:07.455Z,4.75
2023-04-27T20:57:36.432Z,4.47
2023-04-27T21:00:04.837Z,5.05
2023-04-27T21:02:32.485Z,5.04
2023-04-27T21:05:00.241Z,4.99
2023-04-27T21:07:29.736Z,5.34
2023-04-27T21:09:57.271Z,5.51
2023-04-27T21:12:59.208Z,5.79
2023-04-27T21:15:28.472Z,5.99
2023-04-27T21:25:23.603Z,5.73
2023-04-27T21:28:16.921Z,6.28
2023-04-27T21:38:49.653Z,6.15
2023-04-27T21:41:56.038Z,6.39
2023-04-27T21:44:47.871Z,6.29
2023-04-27T21:47:33.097Z,6.35
2023-04-27T21:50:18.850Z,6.50
2023-04-27T21:52:58.573Z,6.22
2023-04-27T21:55:45.033Z,6.08
2023-04-27T21:58:47.468Z,6.23
2023-04-27T22:01:34.619Z,5.33
2023-04-27T22:04:23.573Z,5.34
2023-04-27T22:07:14.696Z,4.79
2023-04-27T22:10:13.431Z,4.78
2023-04-27T22:12:48.620Z,4.47
2023-04-27T22:15:39.785Z,4.92
2023-04-27T22:18:40.881Z,4.67
2023-04-27T22:21:27.779Z,4.34
2023-04-27T22:24:08.815Z,4.46
2023-04-27T22:26:54.335Z,4.75
2023-04-27T22:29:43.088Z,4.72
2023-04-27T22:32:38.978Z,4.52
2023-04-27T22:35:26.923Z,5.05
2023-04-27T22:38:20.964Z,5.27
2023-04-27T22:40:55.032Z,5.55
2023-04-27T22:43:32.351Z,5.71
2023-04-27T22:46:13.161Z,5.63
2023-04-27T22:48:53.060Z,5.47
2023-04-27T22:51:42.942Z,5.16
2023-04-27T22:54:54.410Z,5.15
2023-04-27T22:57:40.737Z,5.57
2023-04-27T23:00:30.379Z,5.32
2023-04-27T23:03:10.906Z,5.51
2023-04-27T23:06:17.388Z,5.80
2023-04-27T23:09:14.464Z,6.21
2023-04-27T23:12:18.124Z,5.93
2023-04-27T23:18:57.822Z,6.29
2023-04-27T23:21:52.533Z,6.30
2023-04-27T23:25:13.318Z,6.18
2023-04-27T23:28:34.160Z,5.97
2023-04-27T23:31:57.948Z,6.06
2023-04-27T23:43:04.860Z,5.48
2023-04-27T23:46:31.096Z,4.58
2023-04-27T23:49:54.476Z,4.28
2023-04-27T23:53:26.260Z,4.28
2023-04-27T23:56:44.906Z,4.24
2023-04-27T23:59:43.757Z,5.00
